sensor_id;sensor_type;location;lat;lon;timestamp;P1;durP1;ratioP1;P2;durP2;ratioP2
6177;SDS011;3122;48.208;11.174;2024-01-25T00:04:01;2.07;;;1.50;;
6177;SDS011;3122;48.208;11.174;2024-01-25T00:09:02;3.63;;;1.67;;
6177;SDS011;3122;48.208;11.174;2024-01-25T00:14:04;8.40;;;2.30;;
6177;SDS011;3122;48.208;11.174;2024-01-25T00:19:04;8.83;;;2.10;;
6177;SDS011;3122;48.208;11.174;2024-01-25T00:24:05;12.93;;;2.23;;
6177;SDS011;3122;48.208;11.174;2024-01-25T00:29:05;9.47;;;1.87;;
6177;SDS011;3122;48.208;11.174;2024-01-25T00:34:06;7.37;;;2.20;;
6177;SDS011;3122;48.208;11.174;2024-01-25T00:39:07;4.27;;;2.00;;
6177;SDS011;3122;48.208;11.174;2024-01-25T00:44:08;11.17;;;1.60;;
6177;SDS011;3122;48.208;11.174;2024-01-25T00:49:09;6.33;;;2.37;;
6177;SDS011;3122;48.208;11.174;2024-01-25T00:54:10;10.60;;;3.43;;
6177;SDS011;3122;48.208;11.174;2024-01-25T00:59:10;7.03;;;2.30;;
6177;SDS011;3122;48.208;11.174;2024-01-25T01:04:11;11.83;;;2.57;;
6177;SDS011;3122;48.208;11.174;2024-01-25T01:09:12;7.13;;;2.47;;
6177;SDS011;3122;48.208;11.174;2024-01-25T01:14:13;9.73;;;2.40;;
6177;SDS011;3122;48.208;11.174;2024-01-25T01:19:13;10.90;;;2.37;;
6177;SDS011;3122;48.208;11.174;2024-01-25T01:24:14;8.23;;;2.37;;
6177;SDS011;3122;48.208;11.174;2024-01-25T01:29:14;13.43;;;2.93;;
6177;SDS011;3122;48.208;11.174;2024-01-25T01:34:15;10.70;;;2.40;;
6177;SDS011;3122;48.208;11.174;2024-01-25T01:39:17;13.00;;;2.17;;
6177;SDS011;3122;48.208;11.174;2024-01-25T01:44:18;8.43;;;2.70;;
6177;SDS011;3122;48.208;11.174;2024-01-25T01:49:18;7.80;;;2.20;;
6177;SDS011;3122;48.208;11.174;2024-01-25T01:54:19;8.20;;;2.20;;
6177;SDS011;3122;48.208;11.174;2024-01-25T01:59:19;3.50;;;2.10;;
6177;SDS011;3122;48.208;11.174;2024-01-25T02:04:20;4.93;;;1.70;;
6177;SDS011;3122;48.208;11.174;2024-01-25T02:09:21;8.80;;;2.60;;
6177;SDS011;3122;48.208;11.174;2024-01-25T02:14:22;9.40;;;2.50;;
6177;SDS011;3122;48.208;11.174;2024-01-25T02:19:22;6.90;;;2.10;;
6177;SDS011;3122;48.208;11.174;2024-01-25T02:24:23;10.03;;;2.37;;
6177;SDS011;3122;48.208;11.174;2024-01-25T02:29:24;8.20;;;2.43;;
6177;SDS011;3122;48.208;11.174;2024-01-25T02:34:24;8.63;;;1.87;;
6177;SDS011;3122;48.208;11.174;2024-01-25T02:39:25;4.53;;;2.10;;
6177;SDS011;3122;48.208;11.174;2024-01-25T02:44:25;10.07;;;2.30;;
6177;SDS011;3122;48.208;11.174;2024-01-25T02:49:26;4.27;;;1.70;;
6177;SDS011;3122;48.208;11.174;2024-01-25T02:54:27;12.20;;;2.50;;
6177;SDS011;3122;48.208;11.174;2024-01-25T02:59:27;7.33;;;2.90;;
6177;SDS011;3122;48.208;11.174;2024-01-25T03:04:28;9.13;;;2.27;;
6177;SDS011;3122;48.208;11.174;2024-01-25T03:09:28;12.53;;;2.67;;
6177;SDS011;3122;48.208;11.174;2024-01-25T03:14:29;13.13;;;2.53;;
6177;SDS011;3122;48.208;11.174;2024-01-25T03:19:29;10.63;;;2.07;;
6177;SDS011;3122;48.208;11.174;2024-01-25T03:24:30;7.30;;;1.70;;
6177;SDS011;3122;48.208;11.174;2024-01-25T03:29:30;8.37;;;1.97;;
6177;SDS011;3122;48.208;11.174;2024-01-25T03:34:31;10.13;;;2.07;;
6177;SDS011;3122;48.208;11.174;2024-01-25T03:39:32;10.47;;;1.83;;
6177;SDS011;3122;48.208;11.174;2024-01-25T03:44:33;5.67;;;1.87;;
6177;SDS011;3122;48.208;11.174;2024-01-25T03:49:33;7.77;;;2.10;;
6177;SDS011;3122;48.208;11.174;2024-01-25T03:54:34;5.90;;;1.80;;
6177;SDS011;3122;48.208;11.174;2024-01-25T03:59:35;3.80;;;1.80;;
6177;SDS011;3122;48.208;11.174;2024-01-25T04:04:35;7.57;;;2.20;;
6177;SDS011;3122;48.208;11.174;2024-01-25T04:09:36;5.87;;;1.80;;
6177;SDS011;3122;48.208;11.174;2024-01-25T04:14:37;11.90;;;2.00;;
6177;SDS011;3122;48.208;11.174;2024-01-25T04:19:37;5.50;;;1.80;;
6177;SDS011;3122;48.208;11.174;2024-01-25T04:24:38;8.47;;;2.13;;
6177;SDS011;3122;48.208;11.174;2024-01-25T04:29:39;8.23;;;2.20;;
6177;SDS011;3122;48.208;11.174;2024-01-25T04:34:43;10.80;;;2.07;;
6177;SDS011;3122;48.208;11.174;2024-01-25T04:39:44;5.57;;;1.90;;
6177;SDS011;3122;48.208;11.174;2024-01-25T04:44:44;9.23;;;1.63;;
6177;SDS011;3122;48.208;11.174;2024-01-25T04:49:45;6.43;;;3.17;;
6177;SDS011;3122;48.208;11.174;2024-01-25T04:54:45;5.80;;;1.90;;
6177;SDS011;3122;48.208;11.174;2024-01-25T04:59:46;7.37;;;2.03;;
6177;SDS011;3122;48.208;11.174;2024-01-25T05:04:46;4.27;;;1.80;;
6177;SDS011;3122;48.208;11.174;2024-01-25T05:09:47;5.20;;;2.10;;
6177;SDS011;3122;48.208;11.174;2024-01-25T05:14:47;6.27;;;2.10;;
6177;SDS011;3122;48.208;11.174;2024-01-25T05:19:48;5.23;;;2.53;;
6177;SDS011;3122;48.208;11.174;2024-01-25T05:24:49;6.07;;;1.73;;
6177;SDS011;3122;48.208;11.174;2024-01-25T05:29:49;6.07;;;2.20;;
6177;SDS011;3122;48.208;11.174;2024-01-25T05:34:50;5.80;;;2.73;;
6177;SDS011;3122;48.208;11.174;2024-01-25T05:39:50;11.10;;;1.83;;
6177;SDS011;3122;48.208;11.174;2024-01-25T05:44:51;4.27;;;1.87;;
6177;SDS011;3122;48.208;11.174;2024-01-25T05:49:51;4.77;;;2.27;;
6177;SDS011;3122;48.208;11.174;2024-01-25T05:54:52;6.73;;;2.00;;
6177;SDS011;3122;48.208;11.174;2024-01-25T05:59:52;4.20;;;1.63;;
6177;SDS011;3122;48.208;11.174;2024-01-25T06:04:53;9.53;;;1.87;;
6177;SDS011;3122;48.208;11.174;2024-01-25T06:09:54;8.10;;;2.27;;
6177;SDS011;3122;48.208;11.174;2024-01-25T06:14:54;12.93;;;3.23;;
6177;SDS011;3122;48.208;11.174;2024-01-25T06:19:55;7.20;;;2.87;;
6177;SDS011;3122;48.208;11.174;2024-01-25T06:24:56;5.10;;;2.17;;
6177;SDS011;3122;48.208;11.174;2024-01-25T06:29:56;11.10;;;2.73;;
6177;SDS011;3122;48.208;11.174;2024-01-25T06:34:57;6.23;;;2.20;;
6177;SDS011;3122;48.208;11.174;2024-01-25T06:39:57;9.70;;;2.60;;
6177;SDS011;3122;48.208;11.174;2024-01-25T06:44:58;6.23;;;2.53;;
6177;SDS011;3122;48.208;11.174;2024-01-25T06:49:59;7.30;;;2.63;;
6177;SDS011;3122;48.208;11.174;2024-01-25T06:54:59;6.73;;;2.40;;
6177;SDS011;3122;48.208;11.174;2024-01-25T07:00:00;6.67;;;2.10;;
6177;SDS011;3122;48.208;11.174;2024-01-25T07:05:00;7.03;;;2.63;;
6177;SDS011;3122;48.208;11.174;2024-01-25T07:10:01;10.70;;;3.50;;
6177;SDS011;3122;48.208;11.174;2024-01-25T07:15:02;8.63;;;2.50;;
6177;SDS011;3122;48.208;11.174;2024-01-25T07:20:03;15.03;;;3.20;;
6177;SDS011;3122;48.208;11.174;2024-01-25T07:25:04;12.40;;;3.10;;
6177;SDS011;3122;48.208;11.174;2024-01-25T07:30:05;9.37;;;2.10;;
6177;SDS011;3122;48.208;11.174;2024-01-25T07:35:08;11.83;;;2.90;;
6177;SDS011;3122;48.208;11.174;2024-01-25T07:40:12;19.07;;;3.70;;
6177;SDS011;3122;48.208;11.174;2024-01-25T07:45:13;10.03;;;3.13;;
6177;SDS011;3122;48.208;11.174;2024-01-25T07:50:13;11.93;;;4.10;;
6177;SDS011;3122;48.208;11.174;2024-01-25T07:55:14;8.80;;;3.10;;
6177;SDS011;3122;48.208;11.174;2024-01-25T08:00:15;7.40;;;3.00;;
6177;SDS011;3122;48.208;11.174;2024-01-25T08:05:15;7.50;;;3.07;;
6177;SDS011;3122;48.208;11.174;2024-01-25T08:10:16;9.50;;;3.43;;
6177;SDS011;3122;48.208;11.174;2024-01-25T08:15:17;13.10;;;3.90;;
6177;SDS011;3122;48.208;11.174;2024-01-25T08:20:17;10.13;;;3.40;;
6177;SDS011;3122;48.208;11.174;2024-01-25T08:25:18;11.87;;;3.50;;
6177;SDS011;3122;48.208;11.174;2024-01-25T08:30:20;15.47;;;3.13;;
6177;SDS011;3122;48.208;11.174;2024-01-25T08:35:20;10.47;;;2.90;;
6177;SDS011;3122;48.208;11.174;2024-01-25T08:40:21;14.47;;;3.23;;
6177;SDS011;3122;48.208;11.174;2024-01-25T08:45:21;15.00;;;3.10;;
6177;SDS011;3122;48.208;11.174;2024-01-25T08:50:22;11.93;;;3.07;;
6177;SDS011;3122;48.208;11.174;2024-01-25T08:55:23;16.43;;;5.00;;
6177;SDS011;3122;48.208;11.174;2024-01-25T09:00:23;13.57;;;3.07;;
6177;SDS011;3122;48.208;11.174;2024-01-25T09:05:24;5.77;;;2.73;;
6177;SDS011;3122;48.208;11.174;2024-01-25T09:10:28;15.73;;;3.40;;
6177;SDS011;3122;48.208;11.174;2024-01-25T09:15:28;11.70;;;3.17;;
6177;SDS011;3122;48.208;11.174;2024-01-25T09:20:29;17.40;;;3.40;;
6177;SDS011;3122;48.208;11.174;2024-01-25T09:25:29;9.40;;;3.70;;
6177;SDS011;3122;48.208;11.174;2024-01-25T09:30:30;11.20;;;3.83;;
6177;SDS011;3122;48.208;11.174;2024-01-25T09:35:31;13.87;;;3.73;;
6177;SDS011;3122;48.208;11.174;2024-01-25T09:40:31;10.80;;;3.33;;
6177;SDS011;3122;48.208;11.174;2024-01-25T09:45:33;18.30;;;3.67;;
6177;SDS011;3122;48.208;11.174;2024-01-25T09:50:34;11.73;;;3.27;;
6177;SDS011;3122;48.208;11.174;2024-01-25T09:55:35;11.97;;;3.47;;
6177;SDS011;3122;48.208;11.174;2024-01-25T10:00:41;13.10;;;2.83;;
6177;SDS011;3122;48.208;11.174;2024-01-25T10:05:42;13.20;;;3.63;;
6177;SDS011;3122;48.208;11.174;2024-01-25T10:10:43;10.80;;;3.00;;
6177;SDS011;3122;48.208;11.174;2024-01-25T10:15:44;13.27;;;3.43;;
6177;SDS011;3122;48.208;11.174;2024-01-25T10:20:47;11.20;;;4.17;;
6177;SDS011;3122;48.208;11.174;2024-01-25T10:25:47;14.37;;;4.83;;
6177;SDS011;3122;48.208;11.174;2024-01-25T10:30:48;10.27;;;3.50;;
6177;SDS011;3122;48.208;11.174;2024-01-25T10:35:49;21.80;;;6.00;;
6177;SDS011;3122;48.208;11.174;2024-01-25T10:40:51;16.83;;;4.30;;
6177;SDS011;3122;48.208;11.174;2024-01-25T10:45:53;14.43;;;4.00;;
6177;SDS011;3122;48.208;11.174;2024-01-25T10:50:57;15.30;;;3.80;;
6177;SDS011;3122;48.208;11.174;2024-01-25T10:56:02;10.80;;;2.90;;
6177;SDS011;3122;48.208;11.174;2024-01-25T11:01:07;8.57;;;3.37;;
6177;SDS011;3122;48.208;11.174;2024-01-25T11:06:11;12.90;;;3.67;;
6177;SDS011;3122;48.208;11.174;2024-01-25T11:11:13;9.50;;;3.00;;
6177;SDS011;3122;48.208;11.174;2024-01-25T11:16:16;11.43;;;3.43;;
6177;SDS011;3122;48.208;11.174;2024-01-25T11:26:44;9.60;;;2.50;;
6177;SDS011;3122;48.208;11.174;2024-01-25T11:31:46;15.53;;;3.23;;
6177;SDS011;3122;48.208;11.174;2024-01-25T11:36:48;9.10;;;2.80;;
6177;SDS011;3122;48.208;11.174;2024-01-25T11:41:50;11.40;;;3.50;;
6177;SDS011;3122;48.208;11.174;2024-01-25T11:46:53;9.90;;;3.00;;
6177;SDS011;3122;48.208;11.174;2024-01-25T11:51:58;8.90;;;2.40;;
6177;SDS011;3122;48.208;11.174;2024-01-25T11:56:58;15.33;;;2.67;;
6177;SDS011;3122;48.208;11.174;2024-01-25T12:02:00;10.83;;;3.10;;
6177;SDS011;3122;48.208;11.174;2024-01-25T12:07:01;12.20;;;2.80;;
6177;SDS011;3122;48.208;11.174;2024-01-25T12:12:03;9.00;;;2.97;;
6177;SDS011;3122;48.208;11.174;2024-01-25T12:17:05;9.07;;;2.87;;
6177;SDS011;3122;48.208;11.174;2024-01-25T12:22:05;7.30;;;2.47;;
6177;SDS011;3122;48.208;11.174;2024-01-25T12:27:06;13.47;;;2.87;;
6177;SDS011;3122;48.208;11.174;2024-01-25T12:32:06;12.17;;;3.13;;
6177;SDS011;3122;48.208;11.174;2024-01-25T12:37:07;8.73;;;2.80;;
6177;SDS011;3122;48.208;11.174;2024-01-25T12:42:08;14.33;;;4.50;;
6177;SDS011;3122;48.208;11.174;2024-01-25T12:47:09;9.00;;;3.30;;
6177;SDS011;3122;48.208;11.174;2024-01-25T12:52:10;18.30;;;5.97;;
6177;SDS011;3122;48.208;11.174;2024-01-25T12:57:12;11.97;;;2.90;;
6177;SDS011;3122;48.208;11.174;2024-01-25T13:02:13;8.37;;;2.90;;
6177;SDS011;3122;48.208;11.174;2024-01-25T13:07:13;12.77;;;2.80;;
6177;SDS011;3122;48.208;11.174;2024-01-25T13:12:14;9.80;;;2.77;;
6177;SDS011;3122;48.208;11.174;2024-01-25T13:17:14;5.60;;;2.17;;
6177;SDS011;3122;48.208;11.174;2024-01-25T13:22:15;9.20;;;2.23;;
6177;SDS011;3122;48.208;11.174;2024-01-25T13:27:17;8.23;;;2.50;;
6177;SDS011;3122;48.208;11.174;2024-01-25T13:32:17;8.13;;;2.70;;
6177;SDS011;3122;48.208;11.174;2024-01-25T13:37:18;5.60;;;2.63;;
6177;SDS011;3122;48.208;11.174;2024-01-25T13:42:18;9.60;;;3.67;;
6177;SDS011;3122;48.208;11.174;2024-01-25T13:47:19;12.97;;;2.90;;
6177;SDS011;3122;48.208;11.174;2024-01-25T13:52:19;12.60;;;2.40;;
6177;SDS011;3122;48.208;11.174;2024-01-25T13:57:20;8.20;;;2.60;;
6177;SDS011;3122;48.208;11.174;2024-01-25T14:02:23;8.73;;;2.47;;
6177;SDS011;3122;48.208;11.174;2024-01-25T14:07:24;18.53;;;2.80;;
6177;SDS011;3122;48.208;11.174;2024-01-25T14:12:24;5.03;;;2.20;;
6177;SDS011;3122;48.208;11.174;2024-01-25T14:17:25;8.63;;;2.80;;
6177;SDS011;3122;48.208;11.174;2024-01-25T14:22:26;8.27;;;3.03;;
6177;SDS011;3122;48.208;11.174;2024-01-25T14:27:28;13.77;;;3.00;;
6177;SDS011;3122;48.208;11.174;2024-01-25T14:32:28;6.63;;;3.30;;
6177;SDS011;3122;48.208;11.174;2024-01-25T14:37:29;9.80;;;3.47;;
6177;SDS011;3122;48.208;11.174;2024-01-25T14:42:31;6.23;;;2.50;;
6177;SDS011;3122;48.208;11.174;2024-01-25T14:47:32;7.47;;;3.40;;
6177;SDS011;3122;48.208;11.174;2024-01-25T14:52:32;11.67;;;2.80;;
6177;SDS011;3122;48.208;11.174;2024-01-25T14:57:34;9.33;;;3.20;;
6177;SDS011;3122;48.208;11.174;2024-01-25T15:02:35;12.07;;;3.07;;
6177;SDS011;3122;48.208;11.174;2024-01-25T15:07:35;10.17;;;3.53;;
6177;SDS011;3122;48.208;11.174;2024-01-25T15:12:36;5.97;;;2.57;;
6177;SDS011;3122;48.208;11.174;2024-01-25T15:17:36;3.37;;;2.17;;
6177;SDS011;3122;48.208;11.174;2024-01-25T15:22:37;12.80;;;3.10;;
6177;SDS011;3122;48.208;11.174;2024-01-25T15:27:38;12.93;;;4.00;;
6177;SDS011;3122;48.208;11.174;2024-01-25T15:32:38;16.23;;;4.60;;
6177;SDS011;3122;48.208;11.174;2024-01-25T15:37:39;11.67;;;5.00;;
6177;SDS011;3122;48.208;11.174;2024-01-25T15:42:42;20.93;;;4.90;;
6177;SDS011;3122;48.208;11.174;2024-01-25T15:47:44;10.73;;;3.30;;
6177;SDS011;3122;48.208;11.174;2024-01-25T15:52:44;7.20;;;3.13;;
6177;SDS011;3122;48.208;11.174;2024-01-25T15:57:45;27.27;;;9.40;;
6177;SDS011;3122;48.208;11.174;2024-01-25T16:02:46;16.90;;;6.83;;
6177;SDS011;3122;48.208;11.174;2024-01-25T16:07:46;12.00;;;5.33;;
6177;SDS011;3122;48.208;11.174;2024-01-25T16:12:49;19.97;;;6.07;;
6177;SDS011;3122;48.208;11.174;2024-01-25T16:17:49;15.23;;;5.30;;
6177;SDS011;3122;48.208;11.174;2024-01-25T16:22:50;22.27;;;6.70;;
6177;SDS011;3122;48.208;11.174;2024-01-25T16:27:51;31.83;;;9.50;;
6177;SDS011;3122;48.208;11.174;2024-01-25T16:32:51;38.20;;;11.40;;
6177;SDS011;3122;48.208;11.174;2024-01-25T16:37:52;21.27;;;6.77;;
6177;SDS011;3122;48.208;11.174;2024-01-25T16:42:53;10.70;;;3.23;;
6177;SDS011;3122;48.208;11.174;2024-01-25T16:47:55;7.87;;;2.83;;
6177;SDS011;3122;48.208;11.174;2024-01-25T16:52:55;10.47;;;3.73;;
6177;SDS011;3122;48.208;11.174;2024-01-25T16:57:56;10.37;;;6.37;;
6177;SDS011;3122;48.208;11.174;2024-01-25T17:02:57;12.40;;;6.50;;
6177;SDS011;3122;48.208;11.174;2024-01-25T17:07:58;9.27;;;4.80;;
6177;SDS011;3122;48.208;11.174;2024-01-25T17:12:59;8.57;;;3.10;;
6177;SDS011;3122;48.208;11.174;2024-01-25T17:17:59;5.13;;;2.57;;
6177;SDS011;3122;48.208;11.174;2024-01-25T17:23:00;2.37;;;2.17;;
6177;SDS011;3122;48.208;11.174;2024-01-25T17:28:01;5.43;;;2.50;;
6177;SDS011;3122;48.208;11.174;2024-01-25T17:33:02;2.60;;;2.40;;
6177;SDS011;3122;48.208;11.174;2024-01-25T17:38:02;7.57;;;2.70;;
6177;SDS011;3122;48.208;11.174;2024-01-25T17:43:03;3.43;;;2.67;;
6177;SDS011;3122;48.208;11.174;2024-01-25T17:48:03;6.93;;;2.73;;
6177;SDS011;3122;48.208;11.174;2024-01-25T17:53:04;4.20;;;2.57;;
6177;SDS011;3122;48.208;11.174;2024-01-25T17:58:05;10.13;;;4.63;;
6177;SDS011;3122;48.208;11.174;2024-01-25T18:03:05;4.20;;;2.50;;
6177;SDS011;3122;48.208;11.174;2024-01-25T18:08:06;3.77;;;2.80;;
6177;SDS011;3122;48.208;11.174;2024-01-25T18:13:06;5.30;;;3.30;;
6177;SDS011;3122;48.208;11.174;2024-01-25T18:18:07;3.20;;;2.30;;
6177;SDS011;3122;48.208;11.174;2024-01-25T18:23:09;3.70;;;2.90;;
6177;SDS011;3122;48.208;11.174;2024-01-25T18:28:09;3.40;;;3.10;;
6177;SDS011;3122;48.208;11.174;2024-01-25T18:33:10;6.10;;;3.60;;
6177;SDS011;3122;48.208;11.174;2024-01-25T18:38:11;3.57;;;3.27;;
6177;SDS011;3122;48.208;11.174;2024-01-25T18:43:12;5.70;;;3.60;;
6177;SDS011;3122;48.208;11.174;2024-01-25T18:48:13;5.57;;;4.53;;
6177;SDS011;3122;48.208;11.174;2024-01-25T18:53:13;5.57;;;4.00;;
6177;SDS011;3122;48.208;11.174;2024-01-25T18:58:14;7.63;;;4.37;;
6177;SDS011;3122;48.208;11.174;2024-01-25T19:03:15;4.33;;;3.93;;
6177;SDS011;3122;48.208;11.174;2024-01-25T19:08:16;4.13;;;3.73;;
6177;SDS011;3122;48.208;11.174;2024-01-25T19:13:17;8.90;;;5.27;;
6177;SDS011;3122;48.208;11.174;2024-01-25T19:18:17;8.03;;;5.53;;
6177;SDS011;3122;48.208;11.174;2024-01-25T19:23:18;6.00;;;4.53;;
6177;SDS011;3122;48.208;11.174;2024-01-25T19:28:19;3.30;;;3.00;;
6177;SDS011;3122;48.208;11.174;2024-01-25T19:33:19;3.83;;;2.97;;
6177;SDS011;3122;48.208;11.174;2024-01-25T19:38:20;4.37;;;3.97;;
6177;SDS011;3122;48.208;11.174;2024-01-25T19:43:20;4.90;;;4.50;;
6177;SDS011;3122;48.208;11.174;2024-01-25T19:48:21;6.10;;;4.83;;
6177;SDS011;3122;48.208;11.174;2024-01-25T19:53:22;5.33;;;4.63;;
6177;SDS011;3122;48.208;11.174;2024-01-25T19:58:23;5.50;;;5.00;;
6177;SDS011;3122;48.208;11.174;2024-01-25T20:03:28;6.93;;;6.23;;
6177;SDS011;3122;48.208;11.174;2024-01-25T20:08:29;7.70;;;6.40;;
6177;SDS011;3122;48.208;11.174;2024-01-25T20:13:30;6.23;;;5.63;;
6177;SDS011;3122;48.208;11.174;2024-01-25T20:18:32;6.40;;;5.80;;
6177;SDS011;3122;48.208;11.174;2024-01-25T20:23:33;6.70;;;5.83;;
6177;SDS011;3122;48.208;11.174;2024-01-25T20:28:34;7.00;;;6.10;;
6177;SDS011;3122;48.208;11.174;2024-01-25T20:33:34;8.87;;;6.10;;
6177;SDS011;3122;48.208;11.174;2024-01-25T20:38:35;6.80;;;5.80;;
6177;SDS011;3122;48.208;11.174;2024-01-25T20:43:36;8.50;;;7.10;;
6177;SDS011;3122;48.208;11.174;2024-01-25T20:48:36;7.47;;;6.70;;
6177;SDS011;3122;48.208;11.174;2024-01-25T20:53:38;8.00;;;6.10;;
6177;SDS011;3122;48.208;11.174;2024-01-25T20:58:38;14.67;;;9.20;;
6177;SDS011;3122;48.208;11.174;2024-01-25T21:03:39;10.77;;;7.60;;
6177;SDS011;3122;48.208;11.174;2024-01-25T21:08:40;13.33;;;8.33;;
6177;SDS011;3122;48.208;11.174;2024-01-25T21:13:41;15.43;;;11.00;;
6177;SDS011;3122;48.208;11.174;2024-01-25T21:18:46;7.07;;;6.37;;
6177;SDS011;3122;48.208;11.174;2024-01-25T21:23:46;6.60;;;5.80;;
6177;SDS011;3122;48.208;11.174;2024-01-25T21:28:47;6.67;;;5.47;;
6177;SDS011;3122;48.208;11.174;2024-01-25T21:33:47;6.00;;;5.40;;
6177;SDS011;3122;48.208;11.174;2024-01-25T21:38:49;6.40;;;5.77;;
6177;SDS011;3122;48.208;11.174;2024-01-25T21:43:49;6.87;;;6.13;;
6177;SDS011;3122;48.208;11.174;2024-01-25T21:48:50;6.90;;;5.93;;
6177;SDS011;3122;48.208;11.174;2024-01-25T21:53:50;8.27;;;6.17;;
6177;SDS011;3122;48.208;11.174;2024-01-25T21:58:51;7.43;;;6.60;;
6177;SDS011;3122;48.208;11.174;2024-01-25T22:03:51;10.60;;;6.67;;
6177;SDS011;3122;48.208;11.174;2024-01-25T22:08:55;7.70;;;6.13;;
6177;SDS011;3122;48.208;11.174;2024-01-25T22:13:55;9.13;;;6.70;;
6177;SDS011;3122;48.208;11.174;2024-01-25T22:18:56;6.50;;;5.90;;
6177;SDS011;3122;48.208;11.174;2024-01-25T22:23:57;8.17;;;6.00;;
6177;SDS011;3122;48.208;11.174;2024-01-25T22:28:59;8.93;;;6.53;;
6177;SDS011;3122;48.208;11.174;2024-01-25T22:33:59;7.00;;;6.00;;
6177;SDS011;3122;48.208;11.174;2024-01-25T22:39:00;7.63;;;6.77;;
6177;SDS011;3122;48.208;11.174;2024-01-25T22:44:00;7.53;;;5.40;;
6177;SDS011;3122;48.208;11.174;2024-01-25T22:49:01;7.20;;;6.20;;
6177;SDS011;3122;48.208;11.174;2024-01-25T22:54:04;6.60;;;5.77;;
6177;SDS011;3122;48.208;11.174;2024-01-25T22:59:04;8.60;;;6.40;;
6177;SDS011;3122;48.208;11.174;2024-01-25T23:04:05;7.53;;;6.30;;
6177;SDS011;3122;48.208;11.174;2024-01-25T23:09:05;9.70;;;7.33;;
6177;SDS011;3122;48.208;11.174;2024-01-25T23:14:06;7.23;;;6.20;;
6177;SDS011;3122;48.208;11.174;2024-01-25T23:19:07;8.60;;;6.10;;
6177;SDS011;3122;48.208;11.174;2024-01-25T23:24:08;8.40;;;6.57;;
6177;SDS011;3122;48.208;11.174;2024-01-25T23:29:08;10.13;;;6.90;;
6177;SDS011;3122;48.208;11.174;2024-01-25T23:34:09;9.47;;;6.27;;
6177;SDS011;3122;48.208;11.174;2024-01-25T23:39:10;8.03;;;5.80;;
6177;SDS011;3122;48.208;11.174;2024-01-25T23:44:10;8.90;;;6.60;;
6177;SDS011;3122;48.208;11.174;2024-01-25T23:49:11;9.90;;;7.53;;
6177;SDS011;3122;48.208;11.174;2024-01-25T23:54:15;10.10;;;7.40;;
6177;SDS011;3122;48.208;11.174;2024-01-25T23:59:16;11.23;;;8.03;;
